Altamonte Springs, FL (32701)

4:25 PM EDT on July 26, 2016 (GMT -0400)
Prairie Lake | | Change Station

Elev 112 ft 28.66 °N, 81.36 °W | Updated 9 minutes ago

Mostly Cloudy
Mostly Cloudy
99.3 °F
Feels Like 114 °F
N
2.2
Wind Variable Wind from SSW

Today
High -- | Low -- °F
--% Chance of Precip.
Yesterday
High -- | Low -- °F
Precip. -- in
Pressure 30.05 in
Visibility 10.0 miles
Clouds Scattered Clouds 5500 ft
Mostly Cloudy 10000 ft
Heat Index 114 °F
Dew Point 76 °F
Humidity 47%
Rainfall 0.00 in
Snow Depth Not available.
6:43 AM 8:19 PM
Waning Gibbous, 51% visible
METAR KORL 261953Z AUTO 12008KT 10SM SCT055 BKN100 34/23 A3004 RMK AO2 SLP174 T03390228
Pressure 30.05 in
Visibility 10.0 miles
Clouds Scattered Clouds 5500 ft
Mostly Cloudy 10000 ft
Heat Index 114 °F
Dew Point 76 °F
Humidity 47%
Rainfall 0.00 in
Snow Depth Not available.
6:43 AM 8:19 PM
Waning Gibbous, 51% visible
METAR KORL 261953Z AUTO 12008KT 10SM SCT055 BKN100 34/23 A3004 RMK AO2 SLP174 T03390228

10-Day Weather Forecast

Almanac

Astronomy

Jul. 26, 2016 Rise Set
Actual Time
Civil Twilight
Nautical Twilight
Astronomical Twilight
Moon
Length of Visible Light
Length of Day
Tomorrow will be .
, % of the Moon is Illuminated

Today's Extremes

State Highs State Lows

Community

WunderPhotos

Upload Photos

1,927,678 photos uploaded!

WunderBlog® & News

Nearby

Air Quality

  Air Quality AQ Index Pollutant
Not available.

Snow Depth

Station Depth Elevation

Earthquake Activity

City Distance Mag. Time & Date
Minimum magnitude displayed is 2.5.

Coastal Water Temperatures

Place Temperature

Stations

Nearby Weather Stations

Station Location Temp. Windchill Dew Point Humidity Wind Precip. Elev Updated Type
                   

Watches & Warnings

There are currently no watches in effect.